sensor_id;sensor_type;location;lat;lon;timestamp;pressure;altitude;pressure_sealevel;temperature;humidity
49529;BME280;35423;37.320;-121.762;2023-07-24T00:02:13;99548.16;;;46.90;6.86
49529;BME280;35423;37.320;-121.762;2023-07-24T00:04:43;99544.82;;;47.10;7.02
49529;BME280;35423;37.320;-121.762;2023-07-24T00:07:10;99546.33;;;46.51;7.28
49529;BME280;35423;37.320;-121.762;2023-07-24T00:09:37;99552.60;;;46.89;7.43
49529;BME280;35423;37.320;-121.762;2023-07-24T00:12:04;99556.93;;;46.86;7.48
49529;BME280;35423;37.320;-121.762;2023-07-24T00:14:30;99551.74;;;46.80;7.48
49529;BME280;35423;37.320;-121.762;2023-07-24T00:16:56;99554.82;;;46.59;7.47
49529;BME280;35423;37.320;-121.762;2023-07-24T00:19:27;99552.67;;;46.69;7.44
49529;BME280;35423;37.320;-121.762;2023-07-24T00:21:53;99549.60;;;46.65;7.45
49529;BME280;35423;37.320;-121.762;2023-07-24T00:24:24;99550.29;;;46.78;7.48
49529;BME280;35423;37.320;-121.762;2023-07-24T00:26:49;99556.44;;;46.48;7.00
49529;BME280;35423;37.320;-121.762;2023-07-24T00:29:21;99553.88;;;46.63;6.96
49529;BME280;35423;37.320;-121.762;2023-07-24T00:31:49;99559.75;;;46.22;7.08
49529;BME280;35423;37.320;-121.762;2023-07-24T00:34:15;99562.60;;;45.97;7.10
49529;BME280;35423;37.320;-121.762;2023-07-24T00:36:43;99567.22;;;45.83;7.15
49529;BME280;35423;37.320;-121.762;2023-07-24T00:39:07;99570.67;;;46.23;7.15
49529;BME280;35423;37.320;-121.762;2023-07-24T00:41:35;99572.97;;;46.14;7.27
49529;BME280;35423;37.320;-121.762;2023-07-24T00:44:07;99573.94;;;45.57;7.34
49529;BME280;35423;37.320;-121.762;2023-07-24T00:46:33;99577.11;;;45.70;7.09
49529;BME280;35423;37.320;-121.762;2023-07-24T00:49:02;99578.35;;;45.69;7.50
49529;BME280;35423;37.320;-121.762;2023-07-24T00:51:35;99579.50;;;45.49;7.65
49529;BME280;35423;37.320;-121.762;2023-07-24T00:53:59;99583.88;;;45.45;7.71
49529;BME280;35423;37.320;-121.762;2023-07-24T00:56:27;99591.42;;;45.15;7.53
49529;BME280;35423;37.320;-121.762;2023-07-24T00:58:52;99589.84;;;45.32;7.59
49529;BME280;35423;37.320;-121.762;2023-07-24T01:01:18;99591.62;;;45.27;7.69
49529;BME280;35423;37.320;-121.762;2023-07-24T01:03:42;99591.98;;;45.23;7.71
49529;BME280;35423;37.320;-121.762;2023-07-24T01:06:11;99588.20;;;45.13;7.73
49529;BME280;35423;37.320;-121.762;2023-07-24T01:08:38;99592.68;;;44.52;7.78
49529;BME280;35423;37.320;-121.762;2023-07-24T01:11:12;99590.75;;;44.87;7.88
49529;BME280;35423;37.320;-121.762;2023-07-24T01:13:40;99590.64;;;44.95;7.99
49529;BME280;35423;37.320;-121.762;2023-07-24T01:16:04;99591.28;;;44.75;8.13
49529;BME280;35423;37.320;-121.762;2023-07-24T01:18:29;99594.48;;;44.42;8.26
49529;BME280;35423;37.320;-121.762;2023-07-24T01:20:57;99595.43;;;44.59;8.25
49529;BME280;35423;37.320;-121.762;2023-07-24T01:23:37;99597.12;;;44.34;8.29
49529;BME280;35423;37.320;-121.762;2023-07-24T01:25:54;99603.01;;;44.50;8.29
49529;BME280;35423;37.320;-121.762;2023-07-24T01:28:15;99606.20;;;44.59;8.38
49529;BME280;35423;37.320;-121.762;2023-07-24T01:30:41;99610.27;;;44.03;8.47
49529;BME280;35423;37.320;-121.762;2023-07-24T01:33:08;99617.19;;;44.33;8.45
49529;BME280;35423;37.320;-121.762;2023-07-24T01:35:33;99621.32;;;44.15;8.44
49529;BME280;35423;37.320;-121.762;2023-07-24T01:38:04;99622.58;;;44.05;8.48
49529;BME280;35423;37.320;-121.762;2023-07-24T01:40:28;99622.94;;;43.65;8.55
49529;BME280;35423;37.320;-121.762;2023-07-24T01:42:53;99621.68;;;44.20;8.68
49529;BME280;35423;37.320;-121.762;2023-07-24T01:45:21;99622.82;;;43.52;8.82
49529;BME280;35423;37.320;-121.762;2023-07-24T01:47:48;99623.63;;;43.42;8.95
49529;BME280;35423;37.320;-121.762;2023-07-24T01:50:14;99623.25;;;43.79;8.96
49529;BME280;35423;37.320;-121.762;2023-07-24T01:52:40;99624.39;;;43.23;9.05
49529;BME280;35423;37.320;-121.762;2023-07-24T01:55:10;99628.99;;;43.15;9.25
49529;BME280;35423;37.320;-121.762;2023-07-24T01:57:43;99631.17;;;43.27;9.37
49529;BME280;35423;37.320;-121.762;2023-07-24T02:00:12;99634.93;;;43.36;9.49
49529;BME280;35423;37.320;-121.762;2023-07-24T02:02:36;99639.26;;;43.19;9.65
49529;BME280;35423;37.320;-121.762;2023-07-24T02:05:09;99639.63;;;42.76;9.70
49529;BME280;35423;37.320;-121.762;2023-07-24T02:07:36;99642.47;;;42.81;9.80
49529;BME280;35423;37.320;-121.762;2023-07-24T02:10:06;99642.26;;;42.91;9.87
49529;BME280;35423;37.320;-121.762;2023-07-24T02:12:32;99643.62;;;42.51;9.90
49529;BME280;35423;37.320;-121.762;2023-07-24T02:14:58;99641.59;;;42.36;10.03
49529;BME280;35423;37.320;-121.762;2023-07-24T02:17:26;99641.63;;;42.72;10.15
49529;BME280;35423;37.320;-121.762;2023-07-24T02:19:51;99643.41;;;42.11;10.24
49529;BME280;35423;37.320;-121.762;2023-07-24T02:22:17;99649.65;;;42.21;10.21
49529;BME280;35423;37.320;-121.762;2023-07-24T02:24:49;99653.98;;;41.67;10.31
49529;BME280;35423;37.320;-121.762;2023-07-24T02:27:26;99662.36;;;41.76;10.42
49529;BME280;35423;37.320;-121.762;2023-07-24T02:29:44;99666.24;;;41.58;10.54
49529;BME280;35423;37.320;-121.762;2023-07-24T02:32:10;99665.28;;;41.17;10.68
49529;BME280;35423;37.320;-121.762;2023-07-24T02:34:36;99669.93;;;41.26;10.83
49529;BME280;35423;37.320;-121.762;2023-07-24T02:37:01;99675.40;;;41.09;10.92
49529;BME280;35423;37.320;-121.762;2023-07-24T02:39:26;99674.27;;;41.17;11.01
49529;BME280;35423;37.320;-121.762;2023-07-24T02:41:52;99675.40;;;41.58;11.07
49529;BME280;35423;37.320;-121.762;2023-07-24T02:44:19;99676.23;;;41.15;11.18
49529;BME280;35423;37.320;-121.762;2023-07-24T02:46:46;99678.70;;;40.72;11.41
49529;BME280;35423;37.320;-121.762;2023-07-24T02:49:12;99678.94;;;40.46;11.60
49529;BME280;35423;37.320;-121.762;2023-07-24T02:51:37;99681.59;;;40.22;11.81
49529;BME280;35423;37.320;-121.762;2023-07-24T02:54:02;99682.98;;;40.24;11.96
49529;BME280;35423;37.320;-121.762;2023-07-24T02:56:29;99684.75;;;39.84;12.09
49529;BME280;35423;37.320;-121.762;2023-07-24T02:58:57;99684.21;;;40.05;12.29
49529;BME280;35423;37.320;-121.762;2023-07-24T03:01:23;99693.56;;;40.27;12.49
49529;BME280;35423;37.320;-121.762;2023-07-24T03:03:50;99696.53;;;39.80;12.59
49529;BME280;35423;37.320;-121.762;2023-07-24T03:06:17;99693.56;;;39.39;12.72
49529;BME280;35423;37.320;-121.762;2023-07-24T03:08:43;99701.07;;;39.51;12.82
49529;BME280;35423;37.320;-121.762;2023-07-24T03:11:11;99702.59;;;39.64;12.90
49529;BME280;35423;37.320;-121.762;2023-07-24T03:13:36;99705.65;;;39.17;13.00
49529;BME280;35423;37.320;-121.762;2023-07-24T03:16:00;99708.66;;;39.00;13.11
49529;BME280;35423;37.320;-121.762;2023-07-24T03:18:30;99708.57;;;38.61;13.21
49529;BME280;35423;37.320;-121.762;2023-07-24T03:20:58;99708.64;;;38.72;13.27
49529;BME280;35423;37.320;-121.762;2023-07-24T03:23:24;99708.77;;;38.80;13.36
49529;BME280;35423;37.320;-121.762;2023-07-24T03:25:54;99705.77;;;38.85;13.43
49529;BME280;35423;37.320;-121.762;2023-07-24T03:28:18;99707.75;;;38.18;13.56
49529;BME280;35423;37.320;-121.762;2023-07-24T03:30:51;99712.53;;;38.29;13.67
49529;BME280;35423;37.320;-121.762;2023-07-24T03:33:17;99717.56;;;38.64;13.74
49529;BME280;35423;37.320;-121.762;2023-07-24T03:35:44;99721.58;;;38.26;13.80
49529;BME280;35423;37.320;-121.762;2023-07-24T03:38:12;99721.31;;;37.89;13.89
49529;BME280;35423;37.320;-121.762;2023-07-24T03:40:39;99724.56;;;38.29;13.91
49529;BME280;35423;37.320;-121.762;2023-07-24T03:43:03;99724.75;;;37.68;14.01
49529;BME280;35423;37.320;-121.762;2023-07-24T03:45:30;99728.45;;;37.96;14.11
49529;BME280;35423;37.320;-121.762;2023-07-24T03:47:57;99724.02;;;37.83;14.22
49529;BME280;35423;37.320;-121.762;2023-07-24T03:50:22;99724.14;;;37.45;14.31
49529;BME280;35423;37.320;-121.762;2023-07-24T03:52:50;99729.15;;;37.31;14.36
49529;BME280;35423;37.320;-121.762;2023-07-24T03:55:24;99735.05;;;36.99;14.42
49529;BME280;35423;37.320;-121.762;2023-07-24T03:57:51;99741.56;;;37.30;14.52
49529;BME280;35423;37.320;-121.762;2023-07-24T04:00:15;99742.02;;;37.22;14.56
49529;BME280;35423;37.320;-121.762;2023-07-24T04:02:50;99744.19;;;36.62;14.65
49529;BME280;35423;37.320;-121.762;2023-07-24T04:05:13;99749.42;;;36.94;14.76
49529;BME280;35423;37.320;-121.762;2023-07-24T04:07:40;99751.38;;;36.90;14.76
49529;BME280;35423;37.320;-121.762;2023-07-24T04:10:15;99756.16;;;37.04;14.83
49529;BME280;35423;37.320;-121.762;2023-07-24T04:12:39;99762.56;;;36.65;14.91
49529;BME280;35423;37.320;-121.762;2023-07-24T04:15:07;99769.01;;;36.77;15.01
49529;BME280;35423;37.320;-121.762;2023-07-24T04:17:35;99773.61;;;36.36;15.04
49529;BME280;35423;37.320;-121.762;2023-07-24T04:20:01;99777.23;;;36.28;15.08
49529;BME280;35423;37.320;-121.762;2023-07-24T04:22:26;99775.75;;;36.50;15.08
49529;BME280;35423;37.320;-121.762;2023-07-24T04:24:51;99781.80;;;36.60;15.10
49529;BME280;35423;37.320;-121.762;2023-07-24T04:27:20;99787.76;;;36.41;15.17
49529;BME280;35423;37.320;-121.762;2023-07-24T04:29:50;99790.52;;;36.25;15.25
49529;BME280;35423;37.320;-121.762;2023-07-24T04:32:16;99789.28;;;36.08;15.35
49529;BME280;35423;37.320;-121.762;2023-07-24T04:34:42;99793.18;;;35.73;15.42
49529;BME280;35423;37.320;-121.762;2023-07-24T04:37:09;99791.17;;;35.64;15.47
49529;BME280;35423;37.320;-121.762;2023-07-24T04:39:40;99790.70;;;35.82;15.49
49529;BME280;35423;37.320;-121.762;2023-07-24T04:42:06;99794.71;;;35.69;15.59
49529;BME280;35423;37.320;-121.762;2023-07-24T04:44:31;99797.65;;;35.61;15.61
49529;BME280;35423;37.320;-121.762;2023-07-24T04:47:01;99802.68;;;35.57;15.62
49529;BME280;35423;37.320;-121.762;2023-07-24T04:49:25;99800.94;;;35.40;15.70
49529;BME280;35423;37.320;-121.762;2023-07-24T04:51:52;99805.44;;;35.26;15.79
49529;BME280;35423;37.320;-121.762;2023-07-24T04:54:26;99807.70;;;35.17;15.88
49529;BME280;35423;37.320;-121.762;2023-07-24T04:56:55;99810.48;;;35.61;15.93
49529;BME280;35423;37.320;-121.762;2023-07-24T04:59:21;99810.26;;;35.06;15.95
49529;BME280;35423;37.320;-121.762;2023-07-24T05:01:46;99810.74;;;35.00;15.98
49529;BME280;35423;37.320;-121.762;2023-07-24T05:04:16;99813.85;;;35.38;15.96
49529;BME280;35423;37.320;-121.762;2023-07-24T05:06:42;99814.03;;;35.30;15.98
49529;BME280;35423;37.320;-121.762;2023-07-24T05:09:13;99812.52;;;34.98;16.05
49529;BME280;35423;37.320;-121.762;2023-07-24T05:11:32;99808.95;;;34.87;16.15
49529;BME280;35423;37.320;-121.762;2023-07-24T05:13:56;99807.37;;;34.79;16.23
49529;BME280;35423;37.320;-121.762;2023-07-24T05:16:28;99810.72;;;34.97;16.28
49529;BME280;35423;37.320;-121.762;2023-07-24T05:18:54;99807.77;;;34.89;16.30
49529;BME280;35423;37.320;-121.762;2023-07-24T05:21:27;99809.96;;;34.82;16.33
49529;BME280;35423;37.320;-121.762;2023-07-24T05:23:52;99806.25;;;34.19;16.41
49529;BME280;35423;37.320;-121.762;2023-07-24T05:26:22;99803.62;;;34.65;16.46
49529;BME280;35423;37.320;-121.762;2023-07-24T05:28:48;99805.77;;;34.52;16.58
49529;BME280;35423;37.320;-121.762;2023-07-24T05:31:12;99804.14;;;34.43;16.66
49529;BME280;35423;37.320;-121.762;2023-07-24T05:33:34;99802.55;;;34.62;16.73
49529;BME280;35423;37.320;-121.762;2023-07-24T05:36:03;99803.53;;;34.53;16.80
49529;BME280;35423;37.320;-121.762;2023-07-24T05:38:29;99807.03;;;34.63;16.90
49529;BME280;35423;37.320;-121.762;2023-07-24T05:40:58;99807.99;;;33.96;17.00
49529;BME280;35423;37.320;-121.762;2023-07-24T05:43:27;99805.21;;;34.12;17.06
49529;BME280;35423;37.320;-121.762;2023-07-24T05:45:51;99798.63;;;33.95;17.13
49529;BME280;35423;37.320;-121.762;2023-07-24T05:48:21;99798.63;;;33.86;17.17
49529;BME280;35423;37.320;-121.762;2023-07-24T05:50:49;99799.00;;;33.76;17.23
49529;BME280;35423;37.320;-121.762;2023-07-24T05:53:14;99804.36;;;33.66;17.32
49529;BME280;35423;37.320;-121.762;2023-07-24T05:55:39;99812.86;;;33.77;17.42
49529;BME280;35423;37.320;-121.762;2023-07-24T05:58:07;99819.86;;;33.62;17.52
49529;BME280;35423;37.320;-121.762;2023-07-24T06:00:32;99824.16;;;32.98;17.65
49529;BME280;35423;37.320;-121.762;2023-07-24T06:02:59;99828.32;;;33.35;17.80
49529;BME280;35423;37.320;-121.762;2023-07-24T06:05:25;99822.08;;;33.25;17.87
49529;BME280;35423;37.320;-121.762;2023-07-24T06:07:50;99822.57;;;33.18;17.86
49529;BME280;35423;37.320;-121.762;2023-07-24T06:10:16;99824.82;;;33.08;17.90
49529;BME280;35423;37.320;-121.762;2023-07-24T06:12:43;99827.90;;;33.00;17.97
49529;BME280;35423;37.320;-121.762;2023-07-24T06:15:12;99826.52;;;32.90;18.02
49529;BME280;35423;37.320;-121.762;2023-07-24T06:17:37;99825.31;;;33.10;18.05
49529;BME280;35423;37.320;-121.762;2023-07-24T06:20:02;99821.97;;;32.99;18.11
49529;BME280;35423;37.320;-121.762;2023-07-24T06:22:30;99816.16;;;32.62;18.22
49529;BME280;35423;37.320;-121.762;2023-07-24T06:25:03;99816.38;;;32.93;18.31
49529;BME280;35423;37.320;-121.762;2023-07-24T06:27:29;99815.74;;;32.57;18.42
49529;BME280;35423;37.320;-121.762;2023-07-24T06:29:56;99817.80;;;32.72;18.47
49529;BME280;35423;37.320;-121.762;2023-07-24T06:32:24;99821.38;;;32.61;18.54
49529;BME280;35423;37.320;-121.762;2023-07-24T06:34:50;99823.93;;;32.27;18.64
49529;BME280;35423;37.320;-121.762;2023-07-24T06:37:17;99824.13;;;32.39;18.76
49529;BME280;35423;37.320;-121.762;2023-07-24T06:39:48;99820.43;;;32.32;18.80
49529;BME280;35423;37.320;-121.762;2023-07-24T06:42:12;99821.23;;;32.50;18.89
49529;BME280;35423;37.320;-121.762;2023-07-24T06:44:38;99825.20;;;32.39;18.94
49529;BME280;35423;37.320;-121.762;2023-07-24T06:47:04;99828.21;;;32.06;19.00
49529;BME280;35423;37.320;-121.762;2023-07-24T06:49:37;99832.25;;;31.80;19.08
49529;BME280;35423;37.320;-121.762;2023-07-24T06:52:00;99834.49;;;31.96;19.15
49529;BME280;35423;37.320;-121.762;2023-07-24T06:54:26;99840.23;;;32.05;19.29
49529;BME280;35423;37.320;-121.762;2023-07-24T06:56:52;99839.99;;;31.83;19.40
49529;BME280;35423;37.320;-121.762;2023-07-24T06:59:19;99843.56;;;31.63;19.48
49529;BME280;35423;37.320;-121.762;2023-07-24T07:01:46;99842.93;;;31.54;19.55
49529;BME280;35423;37.320;-121.762;2023-07-24T07:04:14;99843.20;;;31.48;19.54
49529;BME280;35423;37.320;-121.762;2023-07-24T07:06:39;99844.44;;;31.14;19.54
49529;BME280;35423;37.320;-121.762;2023-07-24T07:09:04;99843.62;;;31.36;19.57
49529;BME280;35423;37.320;-121.762;2023-07-24T07:11:32;99842.59;;;31.55;19.61
49529;BME280;35423;37.320;-121.762;2023-07-24T07:13:56;99840.67;;;31.46;19.68
49529;BME280;35423;37.320;-121.762;2023-07-24T07:16:23;99841.17;;;31.38;19.75
49529;BME280;35423;37.320;-121.762;2023-07-24T07:18:55;99846.02;;;31.36;19.77
49529;BME280;35423;37.320;-121.762;2023-07-24T07:21:22;99848.02;;;31.29;19.81
49529;BME280;35423;37.320;-121.762;2023-07-24T07:23:47;99850.41;;;30.98;19.83
49529;BME280;35423;37.320;-121.762;2023-07-24T07:26:16;99852.85;;;31.39;19.83
49529;BME280;35423;37.320;-121.762;2023-07-24T07:28:39;99856.34;;;31.11;19.86
49529;BME280;35423;37.320;-121.762;2023-07-24T07:31:08;99854.42;;;31.09;19.86
49529;BME280;35423;37.320;-121.762;2023-07-24T07:33:34;99849.86;;;30.83;19.90
49529;BME280;35423;37.320;-121.762;2023-07-24T07:36:02;99846.38;;;31.01;19.93
49529;BME280;35423;37.320;-121.762;2023-07-24T07:38:29;99844.41;;;30.96;19.96
49529;BME280;35423;37.320;-121.762;2023-07-24T07:40:52;99841.13;;;31.32;20.09
49529;BME280;35423;37.320;-121.762;2023-07-24T07:43:18;99837.36;;;30.70;20.23
49529;BME280;35423;37.320;-121.762;2023-07-24T07:45:44;99839.06;;;30.88;20.32
49529;BME280;35423;37.320;-121.762;2023-07-24T07:48:12;99843.67;;;30.56;20.41
49529;BME280;35423;37.320;-121.762;2023-07-24T07:50:40;99845.89;;;30.94;20.45
49529;BME280;35423;37.320;-121.762;2023-07-24T07:53:07;99845.34;;;30.86;20.50
49529;BME280;35423;37.320;-121.762;2023-07-24T07:55:34;99841.49;;;30.42;20.71
49529;BME280;35423;37.320;-121.762;2023-07-24T07:57:59;99839.35;;;30.24;20.93
49529;BME280;35423;37.320;-121.762;2023-07-24T08:00:29;99834.32;;;29.86;20.98
49529;BME280;35423;37.320;-121.762;2023-07-24T08:03:00;99835.55;;;30.25;20.99
49529;BME280;35423;37.320;-121.762;2023-07-24T08:05:23;99835.34;;;30.07;21.11
49529;BME280;35423;37.320;-121.762;2023-07-24T08:07:50;99835.96;;;29.95;21.21
49529;BME280;35423;37.320;-121.762;2023-07-24T08:10:14;99835.48;;;29.86;21.28
49529;BME280;35423;37.320;-121.762;2023-07-24T08:12:41;99831.50;;;29.85;21.25
49529;BME280;35423;37.320;-121.762;2023-07-24T08:15:09;99830.68;;;29.77;21.30
49529;BME280;35423;37.320;-121.762;2023-07-24T08:17:34;99832.01;;;29.91;21.37
49529;BME280;35423;37.320;-121.762;2023-07-24T08:20:01;99830.06;;;29.61;21.45
49529;BME280;35423;37.320;-121.762;2023-07-24T08:22:29;99832.96;;;29.60;21.49
49529;BME280;35423;37.320;-121.762;2023-07-24T08:24:56;99836.87;;;30.06;21.49
49529;BME280;35423;37.320;-121.762;2023-07-24T08:27:24;99835.22;;;29.74;21.63
49529;BME280;35423;37.320;-121.762;2023-07-24T08:29:51;99835.49;;;29.77;21.64
49529;BME280;35423;37.320;-121.762;2023-07-24T08:32:17;99834.16;;;29.77;21.58
49529;BME280;35423;37.320;-121.762;2023-07-24T08:34:46;99831.33;;;29.42;21.60
49529;BME280;35423;37.320;-121.762;2023-07-24T08:37:12;99830.99;;;29.81;21.63
49529;BME280;35423;37.320;-121.762;2023-07-24T08:39:36;99830.92;;;29.47;21.69
49529;BME280;35423;37.320;-121.762;2023-07-24T08:42:10;99829.54;;;29.43;21.71
49529;BME280;35423;37.320;-121.762;2023-07-24T08:44:30;99826.88;;;29.33;21.77
49529;BME280;35423;37.320;-121.762;2023-07-24T08:46:53;99829.02;;;29.52;21.81
49529;BME280;35423;37.320;-121.762;2023-07-24T08:49:18;99832.14;;;29.22;21.80
49529;BME280;35423;37.320;-121.762;2023-07-24T08:51:45;99828.73;;;29.21;21.79
49529;BME280;35423;37.320;-121.762;2023-07-24T08:54:12;99826.43;;;29.42;21.84
49529;BME280;35423;37.320;-121.762;2023-07-24T08:56:39;99828.30;;;29.33;21.92
49529;BME280;35423;37.320;-121.762;2023-07-24T08:59:03;99829.71;;;29.02;21.94
49529;BME280;35423;37.320;-121.762;2023-07-24T09:01:28;99830.83;;;29.24;22.03
49529;BME280;35423;37.320;-121.762;2023-07-24T09:03:59;99831.50;;;28.94;22.08
49529;BME280;35423;37.320;-121.762;2023-07-24T09:06:23;99837.00;;;29.12;22.21
49529;BME280;35423;37.320;-121.762;2023-07-24T09:08:48;99840.28;;;29.10;22.31
49529;BME280;35423;37.320;-121.762;2023-07-24T09:11:22;99842.06;;;28.71;22.40
49529;BME280;35423;37.320;-121.762;2023-07-24T09:13:48;99845.04;;;28.64;22.40
49529;BME280;35423;37.320;-121.762;2023-07-24T09:18:41;99848.33;;;28.54;22.48
49529;BME280;35423;37.320;-121.762;2023-07-24T09:21:05;99852.71;;;28.72;22.53
49529;BME280;35423;37.320;-121.762;2023-07-24T09:23:38;99851.28;;;28.81;22.71
49529;BME280;35423;37.320;-121.762;2023-07-24T09:26:07;99858.40;;;28.53;22.82
49529;BME280;35423;37.320;-121.762;2023-07-24T09:28:29;99860.77;;;28.71;22.90
49529;BME280;35423;37.320;-121.762;2023-07-24T09:31:00;99865.52;;;28.37;23.02
49529;BME280;35423;37.320;-121.762;2023-07-24T09:35:58;99864.25;;;28.64;23.11
49529;BME280;35423;37.320;-121.762;2023-07-24T09:38:14;99862.23;;;28.54;23.15
49529;BME280;35423;37.320;-121.762;2023-07-24T09:40:48;99863.48;;;28.21;23.17
49529;BME280;35423;37.320;-121.762;2023-07-24T09:43:18;99864.70;;;28.09;23.21
49529;BME280;35423;37.320;-121.762;2023-07-24T09:45:40;99862.75;;;28.23;23.26
49529;BME280;35423;37.320;-121.762;2023-07-24T09:48:13;99861.10;;;28.22;23.29
49529;BME280;35423;37.320;-121.762;2023-07-24T09:50:44;99860.58;;;27.76;23.29
49529;BME280;35423;37.320;-121.762;2023-07-24T09:53:07;99863.79;;;28.14;23.31
49529;BME280;35423;37.320;-121.762;2023-07-24T09:55:43;99868.83;;;27.92;23.32
49529;BME280;35423;37.320;-121.762;2023-07-24T09:58:01;99869.63;;;28.09;23.38
49529;BME280;35423;37.320;-121.762;2023-07-24T10:00:31;99872.00;;;28.08;23.41
49529;BME280;35423;37.320;-121.762;2023-07-24T10:02:57;99871.92;;;27.96;23.56
49529;BME280;35423;37.320;-121.762;2023-07-24T10:05:28;99872.15;;;27.87;23.55
49529;BME280;35423;37.320;-121.762;2023-07-24T10:07:56;99871.22;;;27.83;23.60
49529;BME280;35423;37.320;-121.762;2023-07-24T10:10:19;99875.15;;;28.10;23.56
49529;BME280;35423;37.320;-121.762;2023-07-24T10:12:49;99875.93;;;28.29;23.59
49529;BME280;35423;37.320;-121.762;2023-07-24T10:15:16;99879.97;;;28.05;23.59
49529;BME280;35423;37.320;-121.762;2023-07-24T10:17:45;99878.79;;;28.24;23.60
49529;BME280;35423;37.320;-121.762;2023-07-24T10:20:15;99878.73;;;27.66;23.75
49529;BME280;35423;37.320;-121.762;2023-07-24T10:22:43;99880.91;;;27.60;23.88
49529;BME280;35423;37.320;-121.762;2023-07-24T10:25:15;99885.05;;;27.26;23.99
49529;BME280;35423;37.320;-121.762;2023-07-24T10:27:43;99884.14;;;27.67;24.02
49529;BME280;35423;37.320;-121.762;2023-07-24T10:30:08;99884.71;;;27.86;24.02
49529;BME280;35423;37.320;-121.762;2023-07-24T10:32:34;99883.66;;;27.60;24.06
49529;BME280;35423;37.320;-121.762;2023-07-24T10:35:06;99887.82;;;27.25;24.18
49529;BME280;35423;37.320;-121.762;2023-07-24T10:37:32;99888.42;;;27.75;24.15
49529;BME280;35423;37.320;-121.762;2023-07-24T10:39:57;99892.22;;;27.49;24.13
49529;BME280;35423;37.320;-121.762;2023-07-24T10:42:23;99897.59;;;27.48;24.13
49529;BME280;35423;37.320;-121.762;2023-07-24T10:44:46;99898.92;;;27.66;24.21
49529;BME280;35423;37.320;-121.762;2023-07-24T10:47:12;99901.51;;;27.14;24.24
49529;BME280;35423;37.320;-121.762;2023-07-24T10:49:48;99903.29;;;27.38;24.28
49529;BME280;35423;37.320;-121.762;2023-07-24T10:52:05;99907.05;;;27.48;24.36
49529;BME280;35423;37.320;-121.762;2023-07-24T10:54:32;99909.59;;;27.62;24.42
49529;BME280;35423;37.320;-121.762;2023-07-24T10:57:11;99905.40;;;27.33;24.48
49529;BME280;35423;37.320;-121.762;2023-07-24T11:02:00;99907.89;;;27.20;24.64
49529;BME280;35423;37.320;-121.762;2023-07-24T11:04:21;99907.42;;;27.12;24.71
49529;BME280;35423;37.320;-121.762;2023-07-24T11:06:45;99908.49;;;27.10;24.72
49529;BME280;35423;37.320;-121.762;2023-07-24T11:09:13;99910.41;;;26.98;24.84
49529;BME280;35423;37.320;-121.762;2023-07-24T11:11:46;99911.17;;;26.42;24.96
49529;BME280;35423;37.320;-121.762;2023-07-24T11:14:14;99916.57;;;27.07;25.01
49529;BME280;35423;37.320;-121.762;2023-07-24T11:16:48;99919.13;;;26.82;24.99
49529;BME280;35423;37.320;-121.762;2023-07-24T11:19:06;99916.29;;;26.59;24.86
49529;BME280;35423;37.320;-121.762;2023-07-24T11:21:31;99913.21;;;26.78;24.76
49529;BME280;35423;37.320;-121.762;2023-07-24T11:23:57;99912.86;;;27.19;24.82
49529;BME280;35423;37.320;-121.762;2023-07-24T11:26:27;99913.52;;;26.64;24.89
49529;BME280;35423;37.320;-121.762;2023-07-24T11:28:54;99912.21;;;26.58;24.91
49529;BME280;35423;37.320;-121.762;2023-07-24T11:31:23;99910.36;;;26.68;25.05
49529;BME280;35423;37.320;-121.762;2023-07-24T11:33:51;99911.93;;;26.37;25.15
49529;BME280;35423;37.320;-121.762;2023-07-24T11:36:18;99913.19;;;26.52;25.18
49529;BME280;35423;37.320;-121.762;2023-07-24T11:38:45;99912.59;;;26.69;25.23
49529;BME280;35423;37.320;-121.762;2023-07-24T11:41:10;99910.42;;;26.21;25.15
49529;BME280;35423;37.320;-121.762;2023-07-24T11:43:44;99910.74;;;26.17;25.15
49529;BME280;35423;37.320;-121.762;2023-07-24T11:46:03;99914.44;;;26.64;25.15
49529;BME280;35423;37.320;-121.762;2023-07-24T11:48:28;99920.05;;;26.36;25.17
49529;BME280;35423;37.320;-121.762;2023-07-24T11:50:56;99927.18;;;26.07;25.20
49529;BME280;35423;37.320;-121.762;2023-07-24T11:53:24;99928.12;;;26.52;25.22
49529;BME280;35423;37.320;-121.762;2023-07-24T11:55:48;99925.86;;;25.92;25.28
49529;BME280;35423;37.320;-121.762;2023-07-24T11:58:19;99928.88;;;26.36;25.30
49529;BME280;35423;37.320;-121.762;2023-07-24T12:00:45;99926.00;;;25.83;25.32
49529;BME280;35423;37.320;-121.762;2023-07-24T12:03:13;99929.60;;;26.29;25.35
49529;BME280;35423;37.320;-121.762;2023-07-24T12:05:39;99932.08;;;26.31;25.36
49529;BME280;35423;37.320;-121.762;2023-07-24T12:08:03;99939.19;;;26.06;25.36
49529;BME280;35423;37.320;-121.762;2023-07-24T12:10:35;99941.10;;;26.30;25.42
49529;BME280;35423;37.320;-121.762;2023-07-24T12:13:10;99942.73;;;26.21;25.48
49529;BME280;35423;37.320;-121.762;2023-07-24T12:15:39;99943.93;;;25.63;25.53
49529;BME280;35423;37.320;-121.762;2023-07-24T12:18:06;99943.58;;;26.08;25.64
49529;BME280;35423;37.320;-121.762;2023-07-24T12:20:31;99947.61;;;26.03;25.69
49529;BME280;35423;37.320;-121.762;2023-07-24T12:22:58;99951.05;;;25.76;25.68
49529;BME280;35423;37.320;-121.762;2023-07-24T12:25:23;99956.03;;;25.99;25.73
49529;BME280;35423;37.320;-121.762;2023-07-24T12:27:50;99960.25;;;25.90;25.84
49529;BME280;35423;37.320;-121.762;2023-07-24T12:30:18;99963.95;;;25.56;25.94
49529;BME280;35423;37.320;-121.762;2023-07-24T12:32:45;99964.61;;;25.76;26.03
49529;BME280;35423;37.320;-121.762;2023-07-24T12:35:11;99969.18;;;25.71;26.08
49529;BME280;35423;37.320;-121.762;2023-07-24T12:37:42;99974.61;;;25.65;26.04
49529;BME280;35423;37.320;-121.762;2023-07-24T12:40:10;99980.43;;;25.64;26.12